首页
METAR-TAF:

METAR-TAF

机场 :

蒙德马桑, 法国

纬度: 43-55N, 经度: 000-30W, 海拔: 62米

当前天气观测

该预报发布于23分钟前的20:00 UTC
风速3节,风向东转东南,在南转南东之间变化
温度 11°C
湿度 82%
气压 1019 hPa
能见度10公里或以上
1500米以下无云,无积雨云

METAR: LFBM 292000Z AUTO 12003KT 090V150 CAVOK 11/08 Q1019 NOSIG

时间: 21:23 (20:23 UTC)

预报

该预报发布于6小时和23分钟前的14:00 UTC
预报有效从29日的 15点(UTC)到 30日的 15点(UTC)
风速2节,风向多变
能见度10公里或以上
少量云层高于4000英尺
阴天层高于25000英尺
成为
从 30日的 00点(UTC)到 30日的 02点(UTC)
能見度: 4000
多云层高于1000英尺
多云层高于2500英尺

TAF: LFBM 291400Z 2915/3015 VRB02KT 9999 FEW040 OVC250 BECMG 3000/3002 4000 RA BKN010 BKN025

超过4000个机场的气象观测和天气预报(METAR&TAF报告)。

可查询的气象台以黄色和红色小点在地图上表示。

将鼠标移到小点上方,可查看气象台名称。

然后点击查看天气观测和预报。

如需切换地图:点击带黑十字的绿色按钮放大地图;点击带横线的绿色按钮缩小地图;或者点击绿色箭头查看邻近地区的地图。


METAR-TAF: